Time;durP1;ratioP1;P1;durP2;ratioP2;P2;SDS_P1;SDS_P2;PMS_P1;PMS_P2;Temp;Humidity;BMP_temperature;BMP_pressure;BME280_temperature;BME280_humidity;BME280_pressure;Samples;Min_cycle;Max_cycle;Signal;HPM_P1;HPM_P2
2023/01/12 00:02:19;;;;;;;5.28;1.10;;;11.60;89.60;;;;;;5073493;28;20158;-81
2023/01/12 00:04:45;;;;;;;4.05;1.27;;;11.50;89.50;;;;;;5073368;28;20048;-79
2023/01/12 00:07:12;;;;;;;3.20;1.10;;;11.60;89.50;;;;;;5073320;28;20466;-81
2023/01/12 00:09:38;;;;;;;3.58;1.00;;;11.60;89.70;;;;;;5075705;28;20104;-82
2023/01/12 00:12:06;;;;;;;4.35;1.20;;;11.50;89.40;;;;;;5075130;28;20072;-80
2023/01/12 00:14:35;;;;;;;4.53;1.05;;;11.50;89.50;;;;;;5075366;28;20051;-81
2023/01/12 00:17:01;;;;;;;3.40;0.90;;;11.60;90.00;;;;;;5072818;28;20086;-80
2023/01/12 00:19:27;;;;;;;3.00;1.00;;;11.50;89.70;;;;;;5071879;28;20485;-81
2023/01/12 00:24:43;;;;;;;3.15;0.98;;;11.50;89.70;;;;;;5075202;28;20025;-81
2023/01/12 00:27:15;;;;;;;3.22;1.10;;;11.50;89.40;;;;;;5073998;28;20021;-82
2023/01/12 00:29:41;;;;;;;3.90;1.10;;;11.50;89.60;;;;;;5073363;28;20020;-80
2023/01/12 00:32:11;;;;;;;3.75;1.00;;;11.60;89.80;;;;;;5074716;28;20021;-81
2023/01/12 00:34:36;;;;;;;3.08;0.95;;;11.60;89.80;;;;;;5074184;28;20020;-79
2023/01/12 00:37:02;;;;;;;3.05;0.90;;;11.50;89.80;;;;;;5073250;28;20050;-80
2023/01/12 00:39:28;;;;;;;3.88;1.10;;;11.50;89.70;;;;;;5072758;28;20023;-79
2023/01/12 00:47:21;;;;;;;3.25;1.10;;;11.50;89.90;;;;;;5078248;28;20580;-81
2023/01/12 00:49:48;;;;;;;2.03;0.80;;;11.50;89.90;;;;;;5077661;28;20108;-80
2023/01/12 00:52:16;;;;;;;2.58;0.80;;;11.50;89.90;;;;;;5076284;28;20027;-80
2023/01/12 00:54:42;;;;;;;2.73;1.00;;;11.60;90.00;;;;;;5074677;28;20027;-79
2023/01/12 00:57:08;;;;;;;3.10;0.90;;;11.50;90.00;;;;;;5076222;28;20036;-80
2023/01/12 00:59:34;;;;;;;3.85;1.00;;;11.50;90.00;;;;;;5075680;28;20025;-79
2023/01/12 01:02:00;;;;;;;2.50;0.70;;;11.50;90.00;;;;;;5075860;28;20078;-79
2023/01/12 01:04:25;;;;;;;3.17;1.00;;;11.50;90.00;;;;;;5077355;28;20432;-79
2023/01/12 01:06:51;;;;;;;3.63;0.90;;;11.50;90.00;;;;;;5077676;28;20028;-80
2023/01/12 01:09:16;;;;;;;2.42;0.80;;;11.50;90.00;;;;;;5075923;28;20028;-79
2023/01/12 01:11:42;;;;;;;1.73;0.70;;;11.50;90.00;;;;;;5075499;28;20499;-79
2023/01/12 01:14:08;;;;;;;3.13;1.00;;;11.50;90.00;;;;;;5076411;28;20036;-81
2023/01/12 01:16:34;;;;;;;3.70;0.90;;;11.50;90.00;;;;;;5075492;28;20378;-81
2023/01/12 01:19:00;;;;;;;2.10;0.90;;;11.50;90.00;;;;;;5076784;28;20020;-80
2023/01/12 01:21:25;;;;;;;2.97;1.00;;;11.50;90.00;;;;;;5075378;28;20034;-79
2023/01/12 01:23:52;;;;;;;2.47;0.73;;;11.50;90.00;;;;;;5076283;28;20016;-80
2023/01/12 01:26:20;;;;;;;3.28;0.90;;;11.50;90.00;;;;;;5074957;28;20059;-80
2023/01/12 01:28:47;;;;;;;2.38;0.80;;;11.50;90.00;;;;;;5075463;28;20025;-82
2023/01/12 01:31:16;;;;;;;2.45;0.93;;;11.60;90.00;;;;;;5074787;28;20509;-80
2023/01/12 01:33:42;;;;;;;3.45;1.00;;;11.50;90.00;;;;;;5074985;28;20033;-80
2023/01/12 01:36:09;;;;;;;3.58;0.90;;;11.50;90.10;;;;;;5076492;28;20451;-80
2023/01/12 01:38:35;;;;;;;3.10;0.95;;;11.50;90.00;;;;;;5074629;28;20028;-81
2023/01/12 01:41:00;;;;;;;2.70;0.98;;;11.50;90.10;;;;;;5075873;28;20032;-81
2023/01/12 01:43:27;;;;;;;3.05;0.90;;;11.60;90.10;;;;;;5076070;28;20028;-81
2023/01/12 01:46:06;;;;;;;3.58;1.00;;;11.50;90.10;;;;;;5074638;28;20033;-82
2023/01/12 01:48:35;;;;;;;2.67;0.98;;;11.50;90.10;;;;;;5075223;28;20094;-81
2023/01/12 01:51:11;;;;;;;3.45;0.70;;;11.50;90.00;;;;;;5073276;28;20079;-81
2023/01/12 01:53:39;;;;;;;3.05;1.17;;;11.50;90.10;;;;;;5074086;28;20093;-78
2023/01/12 01:56:10;;;;;;;2.30;0.70;;;11.50;90.10;;;;;;5076540;28;20081;-81
2023/01/12 01:58:59;;;;;;;4.07;0.90;;;11.50;90.00;;;;;;5073722;28;20467;-82
2023/01/12 02:01:25;;;;;;;2.25;0.85;;;11.50;90.10;;;;;;5075210;28;20469;-80
2023/01/12 02:03:53;;;;;;;3.15;1.00;;;11.50;90.00;;;;;;5073826;28;20016;-80
2023/01/12 02:06:22;;;;;;;2.00;0.80;;;11.50;90.00;;;;;;5073784;28;20034;-81
2023/01/12 02:08:59;;;;;;;2.25;0.70;;;11.50;90.00;;;;;;5075363;28;20070;-81
2023/01/12 02:17:37;;;;;;;2.75;0.80;;;11.50;90.10;;;;;;5033394;28;20072;-79
2023/01/12 02:20:17;;;;;;;3.13;0.93;;;11.50;90.10;;;;;;5064474;28;20040;-79
2023/01/12 02:23:02;;;;;;;2.83;0.80;;;11.50;90.10;;;;;;5073272;28;20021;-80
2023/01/12 02:25:47;;;;;;;3.00;0.88;;;11.50;90.10;;;;;;5074892;28;20024;-80
2023/01/12 02:28:48;;;;;;;2.55;1.00;;;11.50;90.10;;;;;;5073848;28;20064;-79
2023/01/12 02:31:41;;;;;;;2.88;0.80;;;11.50;90.10;;;;;;5073323;28;20082;-80
2023/01/12 02:34:34;;;;;;;3.10;1.00;;;11.50;90.10;;;;;;5072252;28;20021;-79
2023/01/12 02:37:34;;;;;;;4.00;1.00;;;11.50;90.10;;;;;;5074087;28;20017;-79
2023/01/12 02:40:08;;;;;;;2.80;0.80;;;11.50;90.10;;;;;;5073491;28;20020;-79
2023/01/12 02:42:40;;;;;;;3.17;1.20;;;11.60;90.10;;;;;;5073223;28;20480;-79
2023/01/12 02:45:44;;;;;;;2.65;1.00;;;11.50;90.10;;;;;;5073193;28;20512;-80
2023/01/12 02:48:20;;;;;;;3.60;1.10;;;11.50;90.10;;;;;;5076663;28;20531;-84
2023/01/12 02:51:12;;;;;;;2.88;0.90;;;11.50;90.10;;;;;;5075848;28;20276;-81
2023/01/12 02:53:51;;;;;;;3.05;1.05;;;11.50;90.10;;;;;;5076905;28;20119;-81
2023/01/12 02:56:30;;;;;;;2.38;0.80;;;11.50;90.10;;;;;;5075317;28;20036;-80
2023/01/12 02:59:01;;;;;;;2.70;0.90;;;11.50;90.10;;;;;;5075340;28;20021;-80
2023/01/12 03:01:27;;;;;;;2.80;0.95;;;11.50;90.10;;;;;;5076279;28;20021;-80
2023/01/12 03:03:57;;;;;;;2.00;0.90;;;11.50;90.00;;;;;;5074136;28;20021;-82
2023/01/12 03:06:22;;;;;;;2.22;0.90;;;11.50;90.00;;;;;;5075861;28;20055;-80
2023/01/12 03:08:50;;;;;;;2.42;0.90;;;11.50;90.00;;;;;;5075767;28;20469;-79
2023/01/12 03:11:19;;;;;;;3.33;1.05;;;11.40;90.00;;;;;;5074544;28;20107;-80
2023/01/12 03:13:49;;;;;;;2.65;1.00;;;11.50;90.00;;;;;;5073666;28;20035;-81
2023/01/12 03:16:20;;;;;;;1.60;0.80;;;11.50;90.00;;;;;;5075515;28;20024;-81
2023/01/12 03:18:52;;;;;;;2.50;0.98;;;11.60;90.10;;;;;;5072659;28;20818;-79
2023/01/12 03:21:29;;;;;;;2.70;0.98;;;11.50;90.10;;;;;;5074485;28;20081;-81
2023/01/12 03:24:04;;;;;;;2.13;0.80;;;11.50;90.00;;;;;;5073595;28;20032;-81
2023/01/12 03:26:32;;;;;;;2.15;0.90;;;11.50;90.10;;;;;;5073508;28;20021;-79
2023/01/12 03:29:23;;;;;;;3.08;0.80;;;11.50;90.10;;;;;;5069249;28;20210;-79
2023/01/12 03:31:48;;;;;;;;;;;11.50;90.10;;;;;;5066604;28;20087;-81
2023/01/12 03:34:14;;;;;;;3.33;0.98;;;11.50;90.10;;;;;;5053363;28;19908;-80
2023/01/12 03:36:51;;;;;;;2.40;0.90;;;11.50;90.10;;;;;;5054538;28;20067;-79
2023/01/12 03:39:31;;;;;;;3.13;0.90;;;11.50;90.10;;;;;;5053459;28;20397;-80
2023/01/12 03:42:19;;;;;;;2.90;0.90;;;11.50;90.00;;;;;;5054869;28;20513;-81
2023/01/12 03:44:47;;;;;;;3.00;1.10;;;11.50;90.10;;;;;;5054740;28;20028;-81
2023/01/12 03:47:19;;;;;;;1.67;0.80;;;11.50;90.10;;;;;;5054824;28;20021;-81
2023/01/12 03:49:58;;;;;;;2.78;1.02;;;11.50;90.10;;;;;;5054363;28;20028;-79
2023/01/12 03:52:25;;;;;;;3.58;1.20;;;11.50;90.10;;;;;;5054696;28;20035;-81
2023/01/12 03:54:52;;;;;;;2.30;0.95;;;11.50;90.10;;;;;;5054264;28;20025;-79
2023/01/12 03:57:18;;;;;;;2.35;1.00;;;11.50;90.10;;;;;;5055452;28;20037;-80
2023/01/12 03:59:44;;;;;;;3.50;1.30;;;11.50;90.10;;;;;;5053974;28;20032;-81
2023/01/12 04:02:10;;;;;;;3.63;1.15;;;11.50;90.10;;;;;;5055240;28;20024;-80
2023/01/12 04:04:36;;;;;;;2.90;1.00;;;11.50;90.10;;;;;;5053516;28;20163;-81
2023/01/12 04:07:01;;;;;;;1.92;1.00;;;11.50;90.10;;;;;;5053609;28;20059;-79
2023/01/12 04:09:27;;;;;;;2.83;1.15;;;11.50;90.10;;;;;;5054762;28;20055;-79
2023/01/12 04:12:11;;;;;;;3.75;1.35;;;11.50;90.10;;;;;;5053516;28;20119;-81
2023/01/12 04:14:37;;;;;;;2.17;0.90;;;11.50;90.10;;;;;;5070802;28;20066;-81
2023/01/12 04:17:03;;;;;;;1.98;1.00;;;11.50;90.10;;;;;;5056480;28;20054;-80
2023/01/12 04:19:28;;;;;;;1.95;0.90;;;11.50;90.10;;;;;;5056659;28;20066;-79
2023/01/12 04:24:38;;;;;;;3.08;0.90;;;11.50;90.10;;;;;;5058502;28;20028;-80
2023/01/12 04:27:03;;;;;;;3.30;1.17;;;11.50;90.10;;;;;;5058494;28;20466;-80
2023/01/12 04:29:29;;;;;;;2.38;0.90;;;11.50;90.10;;;;;;5058136;28;20040;-79
2023/01/12 04:31:54;;;;;;;2.00;1.00;;;11.50;90.10;;;;;;5056624;28;20078;-79
2023/01/12 04:34:20;;;;;;;3.20;0.90;;;11.50;90.10;;;;;;5057682;28;20111;-80
2023/01/12 04:36:45;;;;;;;1.95;0.93;;;11.50;90.10;;;;;;5072780;28;20031;-79
2023/01/12 04:39:11;;;;;;;2.72;0.98;;;11.50;90.10;;;;;;5056463;28;20113;-81
2023/01/12 04:41:36;;;;;;;3.13;1.00;;;11.50;90.10;;;;;;5056740;28;20515;-81
2023/01/12 04:44:03;;;;;;;8.68;1.50;;;11.50;90.10;;;;;;5057090;28;20054;-80
2023/01/12 04:46:28;;;;;;;3.10;1.10;;;11.50;90.20;;;;;;5055751;28;20074;-79
2023/01/12 04:48:53;;;;;;;1.83;0.85;;;11.50;90.10;;;;;;5055564;28;20020;-80
2023/01/12 04:51:19;;;;;;;2.50;0.80;;;11.50;90.10;;;;;;5056081;28;20025;-80
2023/01/12 04:53:46;;;;;;;2.72;1.00;;;11.50;90.10;;;;;;5055588;28;20021;-79
2023/01/12 04:56:12;;;;;;;3.47;1.10;;;11.50;90.10;;;;;;5056137;28;20048;-80
2023/01/12 04:58:37;;;;;;;2.78;0.80;;;11.50;90.10;;;;;;5054972;28;20110;-79
2023/01/12 05:01:12;;;;;;;3.25;1.30;;;11.50;90.10;;;;;;5054633;28;20451;-81
2023/01/12 05:03:37;;;;;;;2.60;0.95;;;11.50;90.20;;;;;;5055433;28;20022;-81
2023/01/12 05:06:03;;;;;;;3.45;1.00;;;11.50;90.20;;;;;;5055594;28;20029;-79
2023/01/12 05:11:13;;;;;;;4.45;1.13;;;11.50;90.10;;;;;;5056836;28;20214;-79
2023/01/12 05:13:39;;;;;;;3.97;1.00;;;11.50;90.10;;;;;;5054989;28;20029;-79
2023/01/12 05:16:14;;;;;;;2.63;1.10;;;11.50;90.10;;;;;;5055301;28;20029;-79
2023/01/12 05:18:43;;;;;;;2.90;1.08;;;11.50;90.10;;;;;;5055204;28;20021;-79
2023/01/12 05:21:10;;;;;;;2.17;0.90;;;11.50;90.10;;;;;;5054958;28;20028;-79
2023/01/12 05:23:35;;;;;;;3.65;1.10;;;11.50;90.10;;;;;;5055859;28;20104;-79
2023/01/12 05:26:03;;;;;;;2.22;0.95;;;11.50;90.10;;;;;;5053498;28;20063;-80
2023/01/12 05:28:29;;;;;;;2.97;1.10;;;11.50;90.20;;;;;;5054676;28;20024;-82
2023/01/12 05:31:05;;;;;;;3.72;1.15;;;11.50;90.20;;;;;;5070527;28;20384;-80
2023/01/12 05:33:31;;;;;;;4.70;1.35;;;11.50;90.20;;;;;;5055834;28;20029;-83
2023/01/12 05:35:57;;;;;;;2.90;1.10;;;11.50;90.20;;;;;;5054025;28;20031;-82
2023/01/12 05:38:22;;;;;;;3.55;1.02;;;11.50;90.10;;;;;;5055258;28;20389;-79
2023/01/12 05:40:48;;;;;;;2.78;1.10;;;11.50;90.10;;;;;;5054286;28;20495;-80
2023/01/12 05:46:03;;;;;;;3.55;1.00;;;11.50;90.20;;;;;;5075025;28;20039;-81
2023/01/12 05:48:30;;;;;;;3.97;1.00;;;11.50;90.10;;;;;;5074547;28;20067;-80
2023/01/12 05:51:00;;;;;;;2.67;0.85;;;11.50;90.40;;;;;;5075855;28;20101;-80
2023/01/12 05:53:25;;;;;;;1.48;0.70;;;11.50;90.10;;;;;;5070749;28;20025;-82
2023/01/12 05:55:51;;;;;;;2.25;0.98;;;11.50;90.20;;;;;;5070207;28;20029;-78
2023/01/12 05:58:16;;;;;;;3.17;1.00;;;11.50;90.10;;;;;;5069326;28;20404;-79
2023/01/12 06:00:42;;;;;;;3.70;1.00;;;11.50;90.20;;;;;;5070684;28;20016;-77
2023/01/12 06:03:07;;;;;;;3.72;1.00;;;11.50;90.20;;;;;;5069379;28;20108;-79
2023/01/12 06:05:32;;;;;;;2.90;0.93;;;11.50;90.20;;;;;;5068778;28;20427;-80
2023/01/12 06:07:59;;;;;;;2.03;0.70;;;11.50;90.20;;;;;;5069966;28;20052;-80
2023/01/12 06:10:25;;;;;;;3.47;0.80;;;11.50;90.20;;;;;;5070729;28;20024;-79
2023/01/12 06:15:36;;;;;;;3.45;1.00;;;11.50;90.20;;;;;;5049256;28;20033;-78
2023/01/12 06:18:02;;;;;;;2.88;0.90;;;11.50;90.20;;;;;;5070446;28;20016;-77
2023/01/12 06:20:27;;;;;;;3.00;0.90;;;11.50;90.20;;;;;;5069707;28;20126;-80
2023/01/12 06:22:53;;;;;;;2.42;0.90;;;11.40;90.20;;;;;;5071018;28;20097;-78
2023/01/12 06:25:18;;;;;;;3.33;0.90;;;11.50;90.20;;;;;;5071526;28;20060;-80
2023/01/12 06:27:44;;;;;;;2.20;0.85;;;11.50;90.20;;;;;;5069610;28;20033;-80
2023/01/12 06:30:10;;;;;;;1.80;0.80;;;11.50;90.20;;;;;;5068821;28;20020;-79
2023/01/12 06:32:35;;;;;;;2.05;0.77;;;11.50;90.20;;;;;;5069423;28;20024;-79
2023/01/12 06:35:02;;;;;;;2.47;0.95;;;11.50;90.20;;;;;;5067952;28;20082;-80
2023/01/12 06:37:28;;;;;;;2.10;0.80;;;11.50;90.20;;;;;;5068837;28;20021;-76
2023/01/12 06:39:54;;;;;;;2.17;0.75;;;11.50;90.20;;;;;;5068090;28;20560;-83
2023/01/12 06:42:28;;;;;;;1.58;0.73;;;11.50;90.10;;;;;;5068166;28;20025;-79
2023/01/12 06:44:55;;;;;;;1.48;0.55;;;11.40;90.10;;;;;;5068764;28;20028;-77
2023/01/12 06:47:21;;;;;;;2.00;0.77;;;11.50;90.20;;;;;;5067899;28;20017;-81
2023/01/12 06:49:46;;;;;;;2.60;0.93;;;11.50;90.10;;;;;;5068659;28;20241;-78
2023/01/12 06:52:12;;;;;;;2.92;0.80;;;11.50;90.10;;;;;;5067866;28;20032;-77
2023/01/12 06:54:37;;;;;;;2.97;0.80;;;11.50;90.10;;;;;;5068407;28;20025;-79
2023/01/12 06:57:03;;;;;;;2.17;0.85;;;11.50;90.10;;;;;;5061057;28;20043;-80
2023/01/12 06:59:28;;;;;;;2.65;0.80;;;11.50;90.10;;;;;;5054277;28;20017;-78
2023/01/12 07:01:54;;;;;;;3.00;0.90;;;11.50;90.10;;;;;;5048022;28;20025;-79
2023/01/12 07:04:19;;;;;;;1.63;0.70;;;11.50;90.10;;;;;;5048023;28;20048;-79
2023/01/12 07:06:47;;;;;;;3.13;0.75;;;11.50;90.20;;;;;;5049487;28;20025;-79
2023/01/12 07:09:12;;;;;;;1.98;0.70;;;11.40;90.10;;;;;;5049030;28;20025;-80
2023/01/12 07:11:38;;;;;;;2.55;0.85;;;11.50;90.10;;;;;;5048495;28;20819;-80
2023/01/12 07:14:04;;;;;;;1.52;0.63;;;11.50;90.10;;;;;;5048000;28;20029;-79
2023/01/12 07:16:29;;;;;;;2.20;0.73;;;11.50;90.00;;;;;;5051689;28;20043;-81
2023/01/12 07:18:55;;;;;;;1.95;0.70;;;11.50;90.20;;;;;;5051249;28;20036;-80
2023/01/12 07:21:21;;;;;;;2.53;0.70;;;11.40;90.10;;;;;;5048654;28;20029;-79
2023/01/12 07:23:46;;;;;;;1.83;0.63;;;11.40;90.00;;;;;;5048282;28;20025;-80
2023/01/12 07:26:12;;;;;;;2.38;0.70;;;11.50;90.10;;;;;;5048802;28;20127;-80
2023/01/12 07:28:37;;;;;;;2.65;0.60;;;11.40;90.00;;;;;;5048179;28;20033;-79
2023/01/12 07:31:05;;;;;;;2.05;0.57;;;11.50;90.10;;;;;;5048578;28;20082;-78
2023/01/12 07:33:31;;;;;;;1.58;0.60;;;11.50;90.10;;;;;;5047651;28;20035;-81
2023/01/12 07:35:58;;;;;;;1.10;0.60;;;11.50;90.10;;;;;;5047403;28;20116;-76
2023/01/12 07:38:25;;;;;;;1.65;0.57;;;11.40;90.10;;;;;;5047156;28;20563;-78
2023/01/12 07:40:50;;;;;;;1.17;0.50;;;11.50;90.10;;;;;;5047476;28;20025;-80
2023/01/12 07:43:17;;;;;;;1.45;0.50;;;11.40;90.10;;;;;;5047347;28;20031;-80
2023/01/12 07:45:43;;;;;;;2.08;0.63;;;11.40;90.10;;;;;;5050355;28;20028;-84
2023/01/12 07:48:09;;;;;;;2.35;0.70;;;11.40;90.00;;;;;;5048333;28;20485;-79
2023/01/12 07:50:35;;;;;;;1.05;0.52;;;11.40;90.10;;;;;;5051500;28;20029;-78
2023/01/12 07:53:01;;;;;;;1.17;0.50;;;11.40;90.10;;;;;;5052087;28;20068;-78
2023/01/12 07:55:30;;;;;;;1.75;0.70;;;11.50;90.00;;;;;;5058663;28;20032;-83
2023/01/12 07:57:58;;;;;;;1.98;0.60;;;11.50;90.10;;;;;;5053721;28;20515;-78
2023/01/12 08:00:25;;;;;;;1.70;0.55;;;11.50;90.10;;;;;;5052801;28;20032;-78
2023/01/12 08:02:52;;;;;;;1.70;0.60;;;11.50;90.10;;;;;;5052584;28;20941;-83
2023/01/12 08:05:18;;;;;;;0.98;0.38;;;11.50;90.10;;;;;;5053405;28;20196;-78
2023/01/12 08:07:44;;;;;;;1.15;0.50;;;11.50;90.10;;;;;;5051288;28;20103;-77
2023/01/12 08:10:11;;;;;;;2.53;0.60;;;11.40;90.10;;;;;;5051159;28;20060;-79
2023/01/12 08:12:36;;;;;;;1.27;0.50;;;11.50;90.10;;;;;;5050883;28;20025;-78
2023/01/12 08:15:03;;;;;;;2.97;0.75;;;11.50;90.10;;;;;;5051124;28;20032;-77
2023/01/12 08:17:33;;;;;;;1.90;0.60;;;11.50;90.10;;;;;;5052426;28;20036;-78
2023/01/12 08:20:07;;;;;;;1.60;0.50;;;11.50;90.20;;;;;;5053049;28;20020;-78
2023/01/12 08:22:40;;;;;;;3.92;0.88;;;11.40;90.10;;;;;;5051580;28;20112;-78
2023/01/12 08:25:10;;;;;;;1.60;0.50;;;11.50;90.10;;;;;;5051144;28;20114;-77
2023/01/12 08:27:40;;;;;;;2.40;0.50;;;11.40;90.10;;;;;;5051027;28;20025;-82
2023/01/12 08:30:07;;;;;;;2.42;0.75;;;11.50;90.10;;;;;;5053612;28;20029;-79
2023/01/12 08:32:34;;;;;;;1.10;0.50;;;11.40;90.10;;;;;;5052587;28;20021;-78
2023/01/12 08:35:02;;;;;;;2.70;0.50;;;11.40;90.10;;;;;;5051244;28;20032;-80
2023/01/12 08:37:28;;;;;;;1.25;0.40;;;11.40;90.20;;;;;;5052354;28;20017;-78
2023/01/12 08:39:54;;;;;;;3.10;0.60;;;11.40;90.20;;;;;;5050649;28;20048;-76
2023/01/12 08:42:22;;;;;;;2.42;0.60;;;11.50;90.20;;;;;;5050500;28;20021;-77
2023/01/12 08:44:48;;;;;;;0.43;0.38;;;11.50;90.20;;;;;;5051672;28;20029;-76
2023/01/12 08:47:20;;;;;;;1.02;0.43;;;11.40;90.20;;;;;;5052959;28;20036;-79
2023/01/12 08:49:46;;;;;;;;;;;11.40;90.20;;;;;;5058515;28;20815;-77
2023/01/12 08:52:12;;;;;;;0.38;0.28;;;11.50;90.20;;;;;;5060099;28;19912;-78
2023/01/12 08:54:38;;;;;;;0.30;0.30;;;11.40;90.20;;;;;;5060019;28;20082;-80
2023/01/12 08:57:03;;;;;;;0.60;0.38;;;11.40;90.20;;;;;;5061741;28;20033;-77
2023/01/12 08:59:29;;;;;;;2.13;0.60;;;11.40;90.20;;;;;;5059163;28;20039;-81
2023/01/12 09:01:55;;;;;;;1.08;0.40;;;11.40;90.20;;;;;;5059539;28;20141;-78
2023/01/12 09:04:20;;;;;;;0.52;0.32;;;11.50;90.20;;;;;;5061483;28;20021;-79
2023/01/12 09:06:47;;;;;;;2.33;0.60;;;11.50;90.20;;;;;;5059533;28;20021;-79
2023/01/12 09:09:15;;;;;;;1.85;0.47;;;11.50;90.30;;;;;;5060359;28;20029;-77
2023/01/12 09:11:42;;;;;;;3.47;0.63;;;11.40;90.20;;;;;;5060733;28;20029;-78
2023/01/12 09:14:09;;;;;;;0.65;0.55;;;11.40;90.20;;;;;;5060223;28;20486;-80
2023/01/12 09:16:35;;;;;;;0.70;0.47;;;11.50;90.30;;;;;;5060020;28;20046;-77
2023/01/12 09:19:01;;;;;;;1.27;0.30;;;11.40;90.20;;;;;;5058782;28;20016;-78
2023/01/12 09:21:28;;;;;;;0.98;0.47;;;11.40;90.30;;;;;;5060757;28;20033;-78
2023/01/12 09:23:54;;;;;;;1.70;0.57;;;11.40;90.30;;;;;;5058037;28;20032;-78
2023/01/12 09:26:31;;;;;;;0.88;0.38;;;11.40;90.30;;;;;;5061528;28;20103;-77
2023/01/12 09:28:58;;;;;;;0.52;0.30;;;11.50;90.30;;;;;;5058888;28;20381;-77
2023/01/12 09:31:24;;;;;;;1.17;0.50;;;11.40;90.30;;;;;;5063847;28;20036;-76
2023/01/12 09:33:50;;;;;;;0.85;0.32;;;11.40;90.30;;;;;;5054357;28;20115;-78
2023/01/12 09:36:20;;;;;;;1.08;0.60;;;11.40;90.30;;;;;;5063150;28;20191;-78
2023/01/12 09:38:47;;;;;;;1.20;0.60;;;11.50;90.40;;;;;;5055650;28;20481;-79
2023/01/12 09:47:47;;;;;;;1.65;0.57;;;11.50;90.40;;;;;;5058698;28;20054;-79
2023/01/12 09:50:18;;;;;;;1.02;0.40;;;11.40;90.40;;;;;;5065880;28;20027;-78
2023/01/12 09:52:50;;;;;;;0.82;0.50;;;11.50;90.40;;;;;;5071800;28;20117;-77
2023/01/12 09:55:19;;;;;;;2.55;0.50;;;11.50;90.40;;;;;;5071412;28;20039;-77
2023/01/12 09:58:01;;;;;;;2.08;0.60;;;11.40;90.40;;;;;;5073332;28;20043;-79
2023/01/12 10:00:27;;;;;;;0.68;0.50;;;11.50;90.40;;;;;;5070205;28;20039;-77
2023/01/12 10:03:34;;;;;;;1.25;0.50;;;11.50;90.40;;;;;;5071284;28;20021;-78
2023/01/12 10:06:00;;;;;;;0.80;0.55;;;11.50;90.40;;;;;;5068623;28;20082;-76
2023/01/12 10:08:34;;;;;;;1.00;0.40;;;11.40;90.40;;;;;;5069312;28;20039;-79
2023/01/12 10:11:09;;;;;;;0.90;0.60;;;11.40;90.40;;;;;;5070055;28;20027;-77
2023/01/12 10:13:47;;;;;;;1.33;0.50;;;11.50;90.40;;;;;;5068011;28;20169;-78
2023/01/12 10:16:56;;;;;;;1.27;0.57;;;11.50;90.40;;;;;;5068770;28;20162;-78
2023/01/12 10:19:39;;;;;;;1.45;0.47;;;11.50;90.40;;;;;;5068880;28;20028;-78
2023/01/12 10:22:35;;;;;;;1.15;0.50;;;11.50;90.40;;;;;;5069916;28;20071;-77
2023/01/12 10:25:17;;;;;;;1.75;0.70;;;11.50;90.40;;;;;;5071438;28;20024;-79
2023/01/12 10:27:44;;;;;;;0.65;0.50;;;11.60;90.40;;;;;;5069789;28;20539;-77
2023/01/12 10:30:19;;;;;;;0.75;0.60;;;11.50;90.40;;;;;;5068565;28;20507;-78
2023/01/12 10:32:44;;;;;;;0.95;0.50;;;11.50;90.40;;;;;;5064284;28;20032;-79
2023/01/12 10:35:16;;;;;;;1.17;0.40;;;11.50;90.40;;;;;;5060233;28;20020;-80
2023/01/12 10:37:43;;;;;;;0.65;0.50;;;11.50;90.40;;;;;;5069541;28;20017;-78
2023/01/12 10:40:22;;;;;;;0.70;0.50;;;11.50;90.30;;;;;;5059761;28;20112;-80
2023/01/12 10:43:18;;;;;;;0.82;0.47;;;11.50;90.50;;;;;;5057474;28;20064;-77
2023/01/12 10:45:50;;;;;;;2.58;0.47;;;11.50;90.40;;;;;;5065318;28;20472;-78
2023/01/12 10:48:20;;;;;;;1.30;0.52;;;11.50;90.40;;;;;;5067825;28;20054;-77
2023/01/12 10:50:58;;;;;;;0.55;0.40;;;11.50;90.40;;;;;;5068484;28;20440;-77
2023/01/12 10:53:35;;;;;;;0.90;0.50;;;11.50;90.40;;;;;;5066454;28;20032;-79
2023/01/12 10:56:11;;;;;;;0.95;0.40;;;11.50;90.40;;;;;;5068265;28;20765;-77
2023/01/12 10:58:37;;;;;;;0.82;0.60;;;11.50;90.40;;;;;;5068507;28;20048;-79
2023/01/12 11:01:05;;;;;;;1.17;0.60;;;11.50;90.40;;;;;;5067193;28;20055;-79
2023/01/12 11:03:36;;;;;;;0.82;0.50;;;11.50;90.40;;;;;;5067193;28;20358;-78
2023/01/12 11:06:23;;;;;;;0.70;0.40;;;11.50;90.40;;;;;;5061112;28;20378;-77
2023/01/12 11:08:49;;;;;;;1.63;0.60;;;11.50;90.40;;;;;;5049239;28;20393;-78
2023/01/12 11:11:30;;;;;;;0.95;0.50;;;11.50;90.30;;;;;;5049067;28;20028;-79
2023/01/12 11:14:02;;;;;;;1.17;0.57;;;11.50;90.40;;;;;;5050148;28;20484;-77
2023/01/12 11:16:33;;;;;;;0.77;0.50;;;11.50;90.40;;;;;;5047238;28;20036;-77
2023/01/12 11:19:17;;;;;;;1.25;0.65;;;11.50;90.40;;;;;;5048519;28;20087;-77
2023/01/12 11:21:48;;;;;;;0.50;0.40;;;11.50;90.40;;;;;;5049074;28;20036;-77
2023/01/12 11:24:21;;;;;;;1.45;0.55;;;11.50;90.40;;;;;;5066187;28;20502;-80
2023/01/12 11:27:01;;;;;;;0.85;0.43;;;11.50;90.40;;;;;;5065698;28;20040;-82
2023/01/12 11:29:30;;;;;;;0.55;0.45;;;11.50;90.40;;;;;;5068462;28;20025;-78
2023/01/12 11:32:03;;;;;;;1.13;0.40;;;11.50;90.40;;;;;;5060826;28;20021;-78
2023/01/12 11:34:35;;;;;;;0.55;0.47;;;11.50;90.40;;;;;;5056318;28;20029;-80
2023/01/12 11:37:09;;;;;;;0.57;0.43;;;11.50;90.40;;;;;;5055875;28;20059;-76
2023/01/12 11:39:35;;;;;;;0.82;0.60;;;11.50;90.60;;;;;;5055697;28;20048;-78
2023/01/12 11:45:16;;;;;;;0.90;0.40;;;11.50;90.40;;;;;;5047944;28;20070;-79
2023/01/12 11:48:04;;;;;;;1.13;0.52;;;11.50;90.40;;;;;;5046274;28;20112;-77
2023/01/12 11:50:35;;;;;;;1.25;0.60;;;11.50;90.40;;;;;;5046673;28;20029;-77
2023/01/12 11:53:04;;;;;;;1.15;0.50;;;11.40;90.40;;;;;;5046043;28;20032;-77
2023/01/12 11:55:55;;;;;;;0.55;0.50;;;11.50;90.40;;;;;;5047259;28;20060;-78
2023/01/12 11:58:37;;;;;;;0.82;0.50;;;11.50;90.40;;;;;;5047740;28;20033;-79
2023/01/12 12:01:29;;;;;;;1.38;0.60;;;11.50;90.40;;;;;;5053515;28;20467;-77
2023/01/12 12:04:02;;;;;;;1.30;0.60;;;11.50;90.40;;;;;;5066927;28;20020;-77
2023/01/12 12:06:40;;;;;;;0.65;0.45;;;11.50;90.40;;;;;;5067566;28;20017;-76
2023/01/12 12:09:09;;;;;;;0.70;0.50;;;11.50;90.40;;;;;;5066387;28;20035;-79
2023/01/12 12:11:52;;;;;;;0.82;0.50;;;11.50;90.40;;;;;;5064894;28;20025;-77
2023/01/12 12:15:01;;;;;;;1.63;0.55;;;11.50;90.40;;;;;;5066932;28;20024;-78
2023/01/12 12:17:50;;;;;;;0.77;0.50;;;11.50;90.40;;;;;;5022449;28;20044;-77
2023/01/12 12:20:31;;;;;;;0.50;0.45;;;11.50;90.40;;;;;;5067163;28;20036;-76
2023/01/12 12:23:06;;;;;;;1.23;0.40;;;11.50;90.40;;;;;;5059738;28;20025;-80
2023/01/12 12:26:13;;;;;;;0.82;0.50;;;11.50;90.40;;;;;;5045804;28;20389;-77
2023/01/12 12:29:03;;;;;;;2.45;0.60;;;11.50;90.40;;;;;;4970123;28;20018;-78
2023/01/12 12:31:57;;;;;;;0.90;0.60;;;11.50;90.40;;;;;;4969458;28;20609;-78
2023/01/12 12:34:54;;;;;;;0.73;0.50;;;11.50;90.40;;;;;;5035624;28;20037;-78
2023/01/12 12:37:46;;;;;;;0.57;0.57;;;11.50;90.40;;;;;;5049486;28;20483;-77
2023/01/12 12:45:15;;;;;;;0.68;0.50;;;11.50;90.40;;;;;;5051808;28;20524;-79
2023/01/12 12:46:34;;;;;;;0.60;0.55;;;11.50;90.40;;;;;;5070843;28;20027;-76
2023/01/12 12:49:04;;;;;;;1.55;0.50;;;11.50;90.40;;;;;;5071127;28;20020;-76
2023/01/12 12:51:32;;;;;;;0.90;0.50;;;11.50;90.40;;;;;;5069850;28;20050;-76
2023/01/12 12:53:59;;;;;;;1.20;0.60;;;11.50;90.40;;;;;;5070846;28;20099;-76
2023/01/12 12:56:27;;;;;;;1.05;0.60;;;11.50;90.40;;;;;;5069857;28;20177;-76
2023/01/12 12:58:55;;;;;;;1.20;0.50;;;11.50;90.40;;;;;;5069766;28;20684;-76
2023/01/12 13:01:25;;;;;;;0.40;0.40;;;11.50;90.40;;;;;;5070844;28;20032;-80
2023/01/12 13:03:52;;;;;;;0.52;0.45;;;11.50;90.40;;;;;;5069635;28;20575;-77
2023/01/12 13:06:23;;;;;;;0.60;0.52;;;11.40;90.40;;;;;;5070559;28;20021;-78
2023/01/12 13:08:52;;;;;;;3.65;0.60;;;11.50;90.40;;;;;;5071091;28;20513;-78
2023/01/12 13:11:18;;;;;;;2.60;0.50;;;11.50;90.40;;;;;;5070262;28;20056;-79
2023/01/12 13:14:23;;;;;;;2.30;0.40;;;11.50;90.40;;;;;;5053476;28;20037;-80
2023/01/12 13:16:50;;;;;;;1.50;0.60;;;11.50;90.40;;;;;;5049217;28;20032;-76
2023/01/12 13:19:36;;;;;;;1.98;0.63;;;11.50;90.40;;;;;;5054532;28;20064;-77
2023/01/12 13:22:27;;;;;;;2.72;0.68;;;11.50;90.50;;;;;;5069376;28;20086;-78
2023/01/12 13:24:54;;;;;;;2.35;0.40;;;11.50;90.40;;;;;;5068893;28;20033;-77
2023/01/12 13:27:55;;;;;;;1.23;0.52;;;11.50;90.50;;;;;;5068545;28;20514;-75
2023/01/12 13:30:29;;;;;;;3.53;0.60;;;11.50;90.50;;;;;;5048505;28;20029;-76
2023/01/12 13:33:14;;;;;;;2.65;0.60;;;11.50;90.40;;;;;;5047441;28;20056;-79
2023/01/12 13:35:42;;;;;;;1.38;0.60;;;11.50;90.40;;;;;;5045487;28;20040;-77
2023/01/12 13:38:43;;;;;;;1.73;0.68;;;11.50;90.40;;;;;;5057446;28;20012;-76
2023/01/12 13:44:30;;;;;;;1.83;0.60;;;11.50;90.40;;;;;;5024796;28;20033;-77
2023/01/12 13:47:13;;;;;;;2.63;0.70;;;11.50;90.40;;;;;;5026248;28;20021;-78
2023/01/12 13:49:46;;;;;;;1.00;0.50;;;11.50;90.40;;;;;;5042482;28;20041;-77
2023/01/12 13:52:29;;;;;;;1.45;0.50;;;11.50;90.40;;;;;;5055830;28;20078;-78